Lemhi County Airport
KSMN : now visible

Airfield :











YOU CAN JOIN US ON...

 
LOGIN :

Register | Disclaimer

   EN    FR    IT 

 









Legend :    VFR   Marginal VFR   IFR   Intensive IFR   Very Intensive IFR
Visi :
Ceiling :
>= 8 km
>= 3000ft
5 to 8 km
1000 to 3000 ft
1500m to 5 km
500 to 1000 ft
800 to 1500m
200 to 500 ft
< 800m
< 200 ft
Symbols :   Thunderstorms  Fog  Heavy snow  Heavy precipitations  Wind > 20 kt






- Airport Elevation : 4043 ft


KSMN - Lemhi County

CURRENT METAR :
  • 180556Z AUTO 00000KT 10SM OVC055 M12/M14 A3027 RMK AO2 SLP319 60000 T11221139 11033 21133 51017 FZRANO

EXPIRED METARs :
  • 180456Z AUTO 14005KT 10SM BKN055 M12/M14 A3026 RMK AO2 SLP318 T11221144 FZRANO
  • 180356Z AUTO 13003KT 10SM SCT065 M12/M14 A3023 RMK AO2 SLP311 T11221144 FZRANO

TAF KSMN
Valid from the 18 at 06:00 until the 19 at 06:00 UTC


180520Z 1806/1906 VRB03KT P6SM SCT070



MET'MAP, your aeronautical weather chart ! - Copyright ORBIFLY December 2007 - Disclaimer

ORBIFLY MET'MAP TEAM :

Programming & Development : Alexandra Zaïnal
Concept & original design : Baudouin d'Aumeries
Assistance for programming : Marc-Olivier Méhu
Technical & hardware support : Manuel Goepfert

Contact : metmap@orbifly.com




SOURCES & CREDITS :

   NOAA       Earth
Advisory